WS36 weather

Swan Field
Almond, Wisconsin, United States

Public forecast

Using degrees Fahrenheit for public forecast. Weather courtesy of forecast.io.

METAR (pilot weather report)

Closest report is Wautoma Municipal Airport, 14.9 nm (27.7 km) SSE. Retrieved 2019/08/17 11:56 UTC (6 minutes ago):

KY50 171156Z AUTO 00000KT 10SM CLR 15/14 A2993 RMK AO2 SLP132 6//// 7//// T01500144 10156 20128 53021 $

TAF (pilot weather forecast)

Closest forecast is Central Wisconsin Airport, 31.9 nm (59.2 km) NNW. Retrieved 2019/08/17 12:30 UTC (0 seconds ago):

TAF KCWA 171129Z 1712/1812 VRB03KT P6SM SKC TEMPO 1712/1713 3SM BR FM171500 20004KT P6SM SCT035 FM180100 14004KT P6SM SCT080 FM180800 13005KT 6SM -SHRA BKN040 FM181000 13005KT 4SM -SHRA OVC015